Time;durP1;ratioP1;P1;durP2;ratioP2;P2;SDS_P1;SDS_P2;PMS_P1;PMS_P2;Temp;Humidity;BMP_temperature;BMP_pressure;BME280_temperature;BME280_humidity;BME280_pressure;Samples;Min_cycle;Max_cycle;Signal;HPM_P1;HPM_P2
2021/05/17 00:00:10;;;;;;;1.03;0.90;;;10.70;99.90;;;;;;5071480;28;20470;-54
2021/05/17 00:02:37;;;;;;;0.80;0.80;;;10.80;99.90;;;;;;5071691;28;20524;-54
2021/05/17 00:05:05;;;;;;;0.80;0.77;;;10.70;99.90;;;;;;5071562;28;20454;-54
2021/05/17 00:07:32;;;;;;;1.80;0.80;;;10.60;99.90;;;;;;5071753;28;20934;-54
2021/05/17 00:09:59;;;;;;;0.90;0.80;;;10.60;99.90;;;;;;5071205;28;20474;-54
2021/05/17 00:12:26;;;;;;;0.60;0.50;;;10.50;99.90;;;;;;5070724;28;20480;-54
2021/05/17 00:14:52;;;;;;;2.13;0.60;;;10.50;99.90;;;;;;5071538;28;20455;-54
2021/05/17 00:17:19;;;;;;;2.07;0.60;;;10.60;99.90;;;;;;5071114;28;20450;-55
2021/05/17 00:19:46;;;;;;;3.67;0.60;;;10.60;99.90;;;;;;5071200;28;20523;-54
2021/05/17 00:22:12;;;;;;;0.63;0.60;;;10.40;99.90;;;;;;5071305;28;20449;-54
2021/05/17 00:24:44;;;;;;;0.80;0.70;;;10.50;99.90;;;;;;5071131;28;20830;-54
2021/05/17 00:27:11;;;;;;;4.13;0.60;;;10.60;99.90;;;;;;5071331;28;20462;-54
2021/05/17 00:29:41;;;;;;;0.90;0.70;;;10.50;99.90;;;;;;5072012;28;20474;-54
2021/05/17 00:32:09;;;;;;;1.10;0.60;;;10.80;99.90;;;;;;5074948;28;20478;-54
2021/05/17 00:34:36;;;;;;;1.33;0.60;;;10.90;99.90;;;;;;5074790;28;20442;-54
2021/05/17 00:37:02;;;;;;;0.90;0.80;;;10.80;99.90;;;;;;5074739;28;20495;-54
2021/05/17 00:39:29;;;;;;;1.10;0.60;;;10.70;99.90;;;;;;5074859;28;20466;-54
2021/05/17 00:41:57;;;;;;;0.60;0.50;;;10.70;99.90;;;;;;5074955;28;21002;-54
2021/05/17 00:44:23;;;;;;;1.00;0.57;;;10.70;99.90;;;;;;5074868;28;20446;-54
2021/05/17 00:46:52;;;;;;;0.70;0.50;;;10.50;99.90;;;;;;5074599;28;20459;-54
2021/05/17 00:49:19;;;;;;;0.90;0.50;;;10.50;99.90;;;;;;5074292;28;20497;-54
2021/05/17 00:51:45;;;;;;;1.23;0.50;;;10.30;99.90;;;;;;5074271;28;20455;-54
2021/05/17 00:54:13;;;;;;;1.00;0.60;;;10.30;99.90;;;;;;5074656;28;21101;-53
2021/05/17 00:56:41;;;;;;;2.10;0.83;;;10.10;99.90;;;;;;5074698;28;20450;-54
2021/05/17 00:59:09;;;;;;;1.00;0.70;;;10.10;99.90;;;;;;5074732;28;20512;-54
2021/05/17 01:01:36;;;;;;;0.93;0.73;;;10.10;99.90;;;;;;5074559;28;20888;-54
2021/05/17 01:04:02;;;;;;;0.97;0.87;;;10.30;99.90;;;;;;5074166;28;20972;-54
2021/05/17 01:06:30;;;;;;;1.00;0.67;;;10.10;99.90;;;;;;5073949;28;20446;-54
2021/05/17 01:09:01;;;;;;;3.60;0.50;;;10.10;99.90;;;;;;5073975;28;20555;-53
2021/05/17 01:11:28;;;;;;;0.77;0.60;;;10.10;99.90;;;;;;5074722;28;20446;-54
2021/05/17 01:13:57;;;;;;;2.30;0.80;;;10.00;99.90;;;;;;5074434;28;20446;-54
2021/05/17 01:16:24;;;;;;;0.97;0.67;;;10.00;99.90;;;;;;5073476;28;20455;-54
2021/05/17 01:18:53;;;;;;;0.77;0.67;;;10.10;99.90;;;;;;5074252;28;20458;-54
2021/05/17 01:21:22;;;;;;;1.33;0.60;;;9.90;99.90;;;;;;5073479;28;20450;-54
2021/05/17 01:23:55;;;;;;;0.90;0.70;;;9.90;99.90;;;;;;5074113;28;20876;-53
2021/05/17 01:26:22;;;;;;;0.80;0.73;;;10.00;99.90;;;;;;5073933;28;20475;-54
2021/05/17 01:28:50;;;;;;;1.17;0.70;;;9.90;99.90;;;;;;5073713;28;21158;-54
2021/05/17 01:31:16;;;;;;;0.73;0.73;;;9.80;99.90;;;;;;5074176;28;20880;-54
2021/05/17 01:33:44;;;;;;;1.43;0.80;;;9.90;99.90;;;;;;5073599;28;20543;-54
2021/05/17 01:36:12;;;;;;;0.87;0.77;;;9.80;99.90;;;;;;5073454;28;20451;-54
2021/05/17 01:38:41;;;;;;;1.20;0.80;;;9.90;99.90;;;;;;5073825;28;20508;-54
2021/05/17 01:41:10;;;;;;;0.90;0.80;;;9.90;99.90;;;;;;5073497;28;20831;-54
2021/05/17 01:43:41;;;;;;;0.93;0.80;;;10.00;99.90;;;;;;5073271;28;20443;-54
2021/05/17 01:46:14;;;;;;;2.30;0.90;;;10.10;99.90;;;;;;5073518;28;20530;-54
2021/05/17 01:48:41;;;;;;;2.03;0.80;;;10.00;99.90;;;;;;5073661;28;20463;-54
2021/05/17 01:51:10;;;;;;;0.80;0.60;;;9.80;99.90;;;;;;5073908;28;20504;-54
2021/05/17 01:53:39;;;;;;;1.43;0.70;;;9.80;99.90;;;;;;5072979;28;20474;-54
2021/05/17 01:56:07;;;;;;;2.40;0.77;;;9.90;99.90;;;;;;5073242;28;20450;-54
2021/05/17 01:58:36;;;;;;;1.60;0.70;;;9.80;99.90;;;;;;5073256;28;20863;-54
2021/05/17 02:01:04;;;;;;;0.60;0.50;;;9.90;99.90;;;;;;5073166;28;20498;-54
2021/05/17 02:03:34;;;;;;;1.20;0.77;;;9.90;99.90;;;;;;5073607;28;20469;-54
2021/05/17 02:06:01;;;;;;;1.87;0.80;;;9.90;99.90;;;;;;5072950;28;20504;-54
2021/05/17 02:08:29;;;;;;;2.80;1.50;;;9.90;99.90;;;;;;5073334;28;20458;-54
2021/05/17 02:10:57;;;;;;;4.93;1.57;;;9.70;99.90;;;;;;5072935;28;20871;-54
2021/05/17 02:13:26;;;;;;;0.90;0.77;;;9.60;99.90;;;;;;5072987;28;20872;-54
2021/05/17 02:15:54;;;;;;;2.53;0.73;;;9.60;99.90;;;;;;5072922;28;20447;-54
2021/05/17 02:18:21;;;;;;;0.80;0.77;;;9.60;99.90;;;;;;5073311;28;20447;-54
2021/05/17 02:20:47;;;;;;;0.60;0.60;;;9.70;99.90;;;;;;5072947;28;20839;-54
2021/05/17 02:23:16;;;;;;;0.87;0.77;;;9.60;99.90;;;;;;5073280;28;20488;-54
2021/05/17 02:25:44;;;;;;;0.90;0.70;;;9.70;99.90;;;;;;5072289;28;20458;-54
2021/05/17 02:28:11;;;;;;;2.40;0.77;;;9.70;99.90;;;;;;5072917;28;20450;-54
2021/05/17 02:30:38;;;;;;;2.50;1.23;;;9.60;99.90;;;;;;5072510;28;20489;-54
2021/05/17 02:33:07;;;;;;;2.03;0.70;;;9.70;99.90;;;;;;5072623;28;20479;-54
2021/05/17 02:35:35;;;;;;;1.80;0.80;;;9.70;99.90;;;;;;5072412;28;20446;-54
2021/05/17 02:38:02;;;;;;;0.70;0.70;;;9.80;99.90;;;;;;5072866;28;20453;-54
2021/05/17 02:40:30;;;;;;;5.53;1.07;;;9.70;99.90;;;;;;5072086;28;20512;-54
2021/05/17 02:43:01;;;;;;;2.13;1.20;;;9.50;99.90;;;;;;5072586;28;20940;-54
2021/05/17 02:45:28;;;;;;;1.33;0.70;;;9.20;99.90;;;;;;5072168;28;20482;-54
2021/05/17 02:47:57;;;;;;;0.87;0.77;;;9.00;99.90;;;;;;5072510;28;20873;-54
2021/05/17 02:50:32;;;;;;;1.53;0.80;;;8.90;99.90;;;;;;5072033;28;20520;-54
2021/05/17 02:53:00;;;;;;;1.77;1.00;;;9.10;99.90;;;;;;5071410;28;20851;-54
2021/05/17 02:55:32;;;;;;;1.10;0.80;;;9.20;99.90;;;;;;5072155;28;20446;-53
2021/05/17 02:58:07;;;;;;;4.10;0.90;;;8.90;99.90;;;;;;5072085;28;20447;-54
2021/05/17 03:00:34;;;;;;;1.27;0.83;;;8.90;99.90;;;;;;5072250;28;20466;-54
2021/05/17 03:03:08;;;;;;;1.90;1.00;;;8.90;99.90;;;;;;5071873;28;20451;-53
2021/05/17 03:05:38;;;;;;;1.40;1.10;;;8.70;99.90;;;;;;5072267;28;20454;-53
2021/05/17 03:08:08;;;;;;;1.47;1.03;;;8.70;99.90;;;;;;5071803;28;20489;-53
2021/05/17 03:10:36;;;;;;;1.57;0.93;;;8.90;99.90;;;;;;5072202;28;20466;-54
2021/05/17 03:13:07;;;;;;;1.43;0.80;;;9.00;99.90;;;;;;5071667;28;20478;-53
2021/05/17 03:15:34;;;;;;;1.33;0.83;;;9.10;99.90;;;;;;5071742;28;20462;-54
2021/05/17 03:18:01;;;;;;;4.40;1.00;;;9.10;99.90;;;;;;5072270;28;20504;-54
2021/05/17 03:20:28;;;;;;;1.13;0.60;;;9.10;99.90;;;;;;5072262;28;20945;-53
2021/05/17 03:22:57;;;;;;;2.50;0.80;;;9.40;99.90;;;;;;5071895;28;20447;-54
2021/05/17 03:25:26;;;;;;;2.47;0.80;;;9.50;99.90;;;;;;5071888;28;20450;-54
2021/05/17 03:27:53;;;;;;;1.20;0.73;;;9.50;99.90;;;;;;5071270;28;20455;-54
2021/05/17 03:30:21;;;;;;;3.10;0.90;;;9.50;99.90;;;;;;5071313;28;20556;-54
2021/05/17 03:32:47;;;;;;;1.10;0.90;;;9.30;99.90;;;;;;5071820;28;20478;-53
2021/05/17 03:35:14;;;;;;;0.90;0.90;;;9.20;99.90;;;;;;5071020;28;20454;-54
2021/05/17 03:37:41;;;;;;;3.80;1.73;;;9.40;99.90;;;;;;5071657;28;20819;-53
2021/05/17 03:40:10;;;;;;;2.10;1.00;;;9.30;99.90;;;;;;5071563;28;20466;-54
2021/05/17 03:42:37;;;;;;;1.63;0.97;;;9.40;99.90;;;;;;5071488;28;20838;-53
2021/05/17 03:45:05;;;;;;;1.57;0.90;;;9.60;99.90;;;;;;5071177;28;20447;-54
2021/05/17 03:47:32;;;;;;;3.20;1.43;;;9.50;99.90;;;;;;5071776;28;20443;-54
2021/05/17 03:49:58;;;;;;;1.10;1.03;;;9.40;99.90;;;;;;5071338;28;20505;-53
2021/05/17 03:52:25;;;;;;;1.70;0.90;;;9.40;99.90;;;;;;5071702;28;20486;-53
2021/05/17 03:54:52;;;;;;;2.37;0.83;;;9.20;99.90;;;;;;5074056;28;20956;-54
2021/05/17 03:57:19;;;;;;;3.60;1.00;;;9.10;99.90;;;;;;5070999;28;20501;-53
2021/05/17 03:59:46;;;;;;;2.33;1.30;;;9.00;99.90;;;;;;5070942;28;20471;-53
2021/05/17 04:02:16;;;;;;;1.13;0.97;;;9.10;99.90;;;;;;5071728;28;20531;-53
2021/05/17 04:04:49;;;;;;;4.20;1.10;;;9.30;99.90;;;;;;5073981;28;20447;-54
2021/05/17 04:07:27;;;;;;;1.40;0.90;;;9.30;99.90;;;;;;5075254;28;20477;-54
2021/05/17 04:15:23;;;;;;;1.50;0.80;;;9.40;99.90;;;;;;5075411;28;20426;-53
2021/05/17 04:17:49;;;;;;;2.30;0.90;;;9.50;99.90;;;;;;5075120;28;20966;-54
2021/05/17 04:20:16;;;;;;;2.80;1.10;;;9.60;99.90;;;;;;5075404;28;20462;-54
2021/05/17 04:22:43;;;;;;;1.40;0.90;;;9.70;99.90;;;;;;5075193;28;20447;-54
2021/05/17 04:25:10;;;;;;;3.83;1.23;;;9.70;99.90;;;;;;5074915;28;20469;-54
2021/05/17 04:27:38;;;;;;;1.23;1.13;;;9.80;99.90;;;;;;5074983;28;20447;-54
2021/05/17 04:30:07;;;;;;;2.90;1.00;;;9.80;99.90;;;;;;5075162;28;20478;-54
2021/05/17 04:32:33;;;;;;;1.07;0.93;;;9.80;99.90;;;;;;5075048;28;21138;-53
2021/05/17 04:35:00;;;;;;;3.00;1.33;;;9.80;99.90;;;;;;5074844;28;20435;-54
2021/05/17 04:37:27;;;;;;;1.53;1.27;;;9.60;99.90;;;;;;5075304;28;20446;-53
2021/05/17 04:39:53;;;;;;;1.13;1.00;;;9.70;99.90;;;;;;5074919;28;20478;-53
2021/05/17 04:42:20;;;;;;;3.90;1.80;;;9.80;99.90;;;;;;5074442;28;20526;-54
2021/05/17 04:44:47;;;;;;;3.10;1.77;;;9.80;99.90;;;;;;5074660;28;20451;-54
2021/05/17 04:47:14;;;;;;;1.47;1.37;;;9.70;99.90;;;;;;5074562;28;20967;-54
2021/05/17 04:49:40;;;;;;;3.03;1.80;;;9.80;99.90;;;;;;5074759;28;20478;-54
2021/05/17 04:52:07;;;;;;;3.60;1.70;;;9.80;99.90;;;;;;5074938;28;20473;-54
2021/05/17 04:54:33;;;;;;;3.93;1.80;;;9.90;99.90;;;;;;5074646;28;20443;-54
2021/05/17 04:57:00;;;;;;;1.70;1.50;;;10.00;99.90;;;;;;5074484;28;20451;-54
2021/05/17 04:59:26;;;;;;;6.17;2.10;;;10.00;99.90;;;;;;5074361;28;21003;-53
2021/05/17 05:01:53;;;;;;;3.80;2.40;;;10.10;99.90;;;;;;5074134;28;20446;-53
2021/05/17 05:04:22;;;;;;;2.27;2.07;;;10.10;99.90;;;;;;5054715;28;20458;-53
2021/05/17 05:06:48;;;;;;;2.10;1.87;;;10.00;99.90;;;;;;5061333;28;20447;-53
2021/05/17 05:09:15;;;;;;;2.50;1.80;;;9.90;99.90;;;;;;5074370;28;20983;-54
2021/05/17 05:11:41;;;;;;;3.00;1.80;;;10.00;99.90;;;;;;5074595;28;20806;-54
2021/05/17 05:14:08;;;;;;;3.37;1.63;;;10.00;99.90;;;;;;5074433;28;20557;-53
2021/05/17 05:16:35;;;;;;;2.90;1.80;;;9.90;99.90;;;;;;5072601;28;20453;-54
2021/05/17 05:19:02;;;;;;;3.50;2.20;;;9.90;99.90;;;;;;5074130;28;20901;-53
2021/05/17 05:21:29;;;;;;;3.33;2.30;;;10.00;99.90;;;;;;5074460;28;20447;-53
2021/05/17 05:23:55;;;;;;;2.13;1.63;;;9.90;99.90;;;;;;5073729;28;20522;-53
2021/05/17 05:26:37;;;;;;;2.47;1.70;;;9.90;99.90;;;;;;5074006;28;20447;-53
2021/05/17 05:29:11;;;;;;;5.20;2.20;;;10.10;99.90;;;;;;5073692;28;20550;-54
2021/05/17 05:31:41;;;;;;;2.80;2.30;;;10.10;99.90;;;;;;5063177;28;20474;-53
2021/05/17 05:34:09;;;;;;;6.40;2.90;;;10.20;99.90;;;;;;5073826;28;20931;-53
2021/05/17 05:36:35;;;;;;;3.40;2.63;;;10.20;99.90;;;;;;5073453;28;20450;-54
2021/05/17 05:39:03;;;;;;;4.47;2.17;;;10.10;99.90;;;;;;5073933;28;20471;-54
2021/05/17 05:41:29;;;;;;;4.70;1.43;;;10.10;99.90;;;;;;5073890;28;20454;-53
2021/05/17 05:43:55;;;;;;;1.63;1.30;;;10.00;99.90;;;;;;5073367;28;20493;-53
2021/05/17 05:46:22;;;;;;;5.40;1.30;;;10.00;99.90;;;;;;5073824;28;20451;-53
2021/05/17 05:48:48;;;;;;;4.90;1.43;;;9.80;99.90;;;;;;5076073;28;20451;-54
2021/05/17 05:51:17;;;;;;;2.70;1.33;;;9.90;99.90;;;;;;5073242;28;20451;-54
2021/05/17 05:53:44;;;;;;;2.23;1.20;;;9.90;99.90;;;;;;5072147;28;20470;-53
2021/05/17 05:56:11;;;;;;;1.90;1.00;;;9.90;99.90;;;;;;5072391;28;20447;-53
2021/05/17 05:58:38;;;;;;;5.53;1.00;;;10.00;99.90;;;;;;5073466;28;20947;-54
2021/05/17 06:01:06;;;;;;;3.33;0.93;;;10.00;99.90;;;;;;5072975;28;20829;-54
2021/05/17 06:03:33;;;;;;;3.27;1.13;;;10.00;99.90;;;;;;5073287;28;20466;-53
2021/05/17 06:05:59;;;;;;;5.43;1.23;;;10.00;99.90;;;;;;5072892;28;20496;-54
2021/05/17 06:08:27;;;;;;;3.57;1.00;;;9.90;99.90;;;;;;5072970;28;20443;-53
2021/05/17 06:10:54;;;;;;;2.47;0.90;;;9.80;99.90;;;;;;5073223;28;20471;-53
2021/05/17 06:13:22;;;;;;;2.87;1.17;;;9.80;99.90;;;;;;5073488;28;20554;-54
2021/05/17 06:15:49;;;;;;;1.73;0.90;;;9.90;99.90;;;;;;5072750;28;20554;-54
2021/05/17 06:18:16;;;;;;;7.30;1.03;;;10.00;99.90;;;;;;5073232;28;20508;-54
2021/05/17 06:20:43;;;;;;;2.13;1.07;;;10.10;99.90;;;;;;5072925;28;20478;-54
2021/05/17 06:23:12;;;;;;;3.70;0.83;;;10.20;99.90;;;;;;5071750;28;20451;-54
2021/05/17 06:25:40;;;;;;;2.83;0.70;;;10.40;99.90;;;;;;5072654;28;20451;-54
2021/05/17 06:28:08;;;;;;;1.57;0.80;;;10.30;99.90;;;;;;5063570;28;20451;-54
2021/05/17 06:30:42;;;;;;;1.70;0.90;;;10.20;99.90;;;;;;5071488;28;20470;-53
2021/05/17 06:33:10;;;;;;;3.07;0.80;;;10.20;99.90;;;;;;5053002;28;20490;-54
2021/05/17 06:35:43;;;;;;;1.90;0.97;;;10.20;99.90;;;;;;5060860;28;20825;-54
2021/05/17 06:38:09;;;;;;;3.10;1.10;;;10.10;99.90;;;;;;5069926;28;20503;-53
2021/05/17 06:40:37;;;;;;;1.10;1.00;;;10.30;99.90;;;;;;5070700;28;20271;-52
2021/05/17 06:43:05;;;;;;;1.37;1.00;;;10.40;99.90;;;;;;5065767;28;20884;-54
2021/05/17 06:45:32;;;;;;;1.00;0.80;;;10.50;99.90;;;;;;5065413;28;20820;-54
2021/05/17 06:47:59;;;;;;;1.87;1.00;;;10.60;99.90;;;;;;5072199;28;20439;-54
2021/05/17 06:50:27;;;;;;;2.70;1.00;;;10.60;99.90;;;;;;5072098;28;20478;-54
2021/05/17 06:52:54;;;;;;;1.90;0.80;;;10.60;99.90;;;;;;5071994;28;20608;-54
2021/05/17 06:55:25;;;;;;;3.00;0.80;;;10.60;99.90;;;;;;5071365;28;20962;-53
2021/05/17 06:58:05;;;;;;;8.43;0.90;;;10.80;99.90;;;;;;5071764;28;20537;-54
2021/05/17 07:00:34;;;;;;;4.10;1.50;;;11.00;99.90;;;;;;5071359;28;20481;-53
2021/05/17 07:03:02;;;;;;;1.70;0.90;;;11.20;99.90;;;;;;5071454;28;20451;-54
2021/05/17 07:05:29;;;;;;;2.20;0.73;;;11.20;99.90;;;;;;5071994;28;20624;-54
2021/05/17 07:13:24;;;;;;;1.30;1.10;;;11.60;99.90;;;;;;5070966;28;20520;-54
2021/05/17 07:15:51;;;;;;;1.60;1.27;;;11.60;99.90;;;;;;5071837;28;20878;-54
2021/05/17 07:18:18;;;;;;;1.27;0.70;;;11.70;99.90;;;;;;5072495;28;20442;-54
2021/05/17 07:23:41;;;;;;;1.47;0.90;;;11.80;99.90;;;;;;5072597;28;20564;-54
2021/05/17 07:26:14;;;;;;;1.43;1.10;;;11.90;99.90;;;;;;5071407;28;20463;-53
2021/05/17 07:28:41;;;;;;;1.00;0.83;;;12.00;99.90;;;;;;5065811;28;20458;-53
2021/05/17 07:31:10;;;;;;;1.20;0.90;;;12.20;99.90;;;;;;5073042;28;20447;-54
2021/05/17 07:33:38;;;;;;;1.57;0.87;;;12.40;99.90;;;;;;5071520;28;20633;-54
2021/05/17 07:36:05;;;;;;;1.37;0.70;;;12.50;99.90;;;;;;5075064;28;20452;-53
2021/05/17 07:38:32;;;;;;;2.50;0.90;;;12.50;99.90;;;;;;5072734;28;20448;-54
2021/05/17 07:41:02;;;;;;;1.33;0.97;;;12.70;99.90;;;;;;5072009;28;20480;-54
2021/05/17 07:43:29;;;;;;;3.00;1.23;;;13.00;99.90;;;;;;5073351;28;20447;-54
2021/05/17 07:45:55;;;;;;;1.10;0.80;;;13.00;99.90;;;;;;5073512;28;20446;-54
2021/05/17 07:48:23;;;;;;;0.93;0.77;;;12.90;99.90;;;;;;5073845;28;20898;-55
2021/05/17 07:50:50;;;;;;;5.87;0.90;;;13.00;99.90;;;;;;5073079;28;20567;-53
2021/05/17 07:53:16;;;;;;;1.83;0.70;;;13.30;99.90;;;;;;5071848;28;20577;-53
2021/05/17 07:55:44;;;;;;;1.00;0.80;;;13.30;99.90;;;;;;5071129;28;20451;-54
2021/05/17 07:58:10;;;;;;;2.80;0.90;;;13.60;99.90;;;;;;5070978;28;20592;-54
2021/05/17 08:00:37;;;;;;;0.80;0.70;;;13.80;99.90;;;;;;5070946;28;20524;-54
2021/05/17 08:03:04;;;;;;;3.10;0.70;;;13.70;99.90;;;;;;5071385;28;20571;-53
2021/05/17 08:05:32;;;;;;;2.53;0.80;;;13.80;99.90;;;;;;5051614;28;20452;-54
2021/05/17 08:07:59;;;;;;;2.40;0.70;;;14.20;99.90;;;;;;5071220;28;20453;-54
2021/05/17 08:10:26;;;;;;;2.70;0.90;;;14.80;99.90;;;;;;5071162;28;20850;-54
2021/05/17 08:12:53;;;;;;;1.87;0.90;;;15.10;99.90;;;;;;5062223;28;20863;-55
2021/05/17 08:15:20;;;;;;;1.70;0.80;;;15.40;99.90;;;;;;5070755;28;20512;-55
2021/05/17 08:17:47;;;;;;;6.53;0.80;;;15.50;99.90;;;;;;5070453;28;20462;-55
2021/05/17 08:20:14;;;;;;;1.10;0.90;;;15.10;99.90;;;;;;5070880;28;20855;-55
2021/05/17 08:22:41;;;;;;;1.03;0.77;;;14.80;99.90;;;;;;5070592;28;20446;-55
2021/05/17 08:25:09;;;;;;;1.93;1.00;;;14.70;99.90;;;;;;5071006;28;20439;-54
2021/05/17 08:27:35;;;;;;;1.27;0.70;;;14.10;99.90;;;;;;5070641;28;20454;-55
2021/05/17 08:30:03;;;;;;;1.27;0.70;;;13.60;99.90;;;;;;5070604;28;20478;-54
2021/05/17 08:32:30;;;;;;;1.47;0.60;;;13.20;99.90;;;;;;5070960;28;20461;-54
2021/05/17 08:34:57;;;;;;;0.90;0.53;;;12.70;99.90;;;;;;5070650;28;20462;-54
2021/05/17 08:37:23;;;;;;;1.00;0.60;;;12.60;99.90;;;;;;5070564;28;20463;-54
2021/05/17 08:39:53;;;;;;;0.97;0.60;;;12.50;99.90;;;;;;5070857;28;20474;-54
2021/05/17 08:42:20;;;;;;;3.40;0.63;;;12.20;99.90;;;;;;5070884;28;20447;-54
2021/05/17 08:44:46;;;;;;;1.37;0.60;;;12.20;99.90;;;;;;5070496;28;20453;-54
2021/05/17 08:47:14;;;;;;;1.10;0.47;;;12.10;99.90;;;;;;5070427;28;20956;-54
2021/05/17 08:49:41;;;;;;;1.03;0.60;;;12.20;99.90;;;;;;5070390;28;20565;-55
2021/05/17 08:52:07;;;;;;;0.70;0.50;;;12.30;99.90;;;;;;5073635;28;20489;-53
2021/05/17 08:54:36;;;;;;;1.20;0.60;;;12.40;99.90;;;;;;5073914;28;20474;-54
2021/05/17 08:57:04;;;;;;;0.90;0.50;;;12.40;99.90;;;;;;5074589;28;20537;-53
2021/05/17 08:59:31;;;;;;;0.60;0.50;;;12.40;99.90;;;;;;5074160;28;20474;-54
2021/05/17 09:01:57;;;;;;;2.10;0.70;;;12.50;99.90;;;;;;5074424;28;20833;-54
2021/05/17 09:04:24;;;;;;;0.60;0.60;;;12.50;99.90;;;;;;5073898;28;20449;-53
2021/05/17 09:06:55;;;;;;;1.07;0.73;;;12.60;99.90;;;;;;5074209;28;20457;-53
2021/05/17 09:09:29;;;;;;;0.60;0.53;;;12.50;99.90;;;;;;5074073;28;20478;-54
2021/05/17 09:11:57;;;;;;;1.00;0.90;;;12.60;99.90;;;;;;5073053;28;20445;-54
2021/05/17 09:14:26;;;;;;;1.33;0.60;;;12.70;99.90;;;;;;5074207;28;20481;-53
2021/05/17 09:16:55;;;;;;;2.13;0.60;;;12.70;99.90;;;;;;5073792;28;20450;-54
2021/05/17 09:19:24;;;;;;;0.90;0.70;;;12.70;99.90;;;;;;5073671;28;20501;-54
2021/05/17 09:22:10;;;;;;;0.67;0.50;;;12.90;99.90;;;;;;5074114;28;20450;-54
2021/05/17 09:24:49;;;;;;;2.13;0.70;;;13.20;99.90;;;;;;5073357;28;20450;-53
2021/05/17 09:27:18;;;;;;;1.37;0.50;;;13.30;99.90;;;;;;5074076;28;20442;-53
2021/05/17 09:29:49;;;;;;;1.30;0.60;;;13.60;99.90;;;;;;5073342;28;20500;-54
2021/05/17 09:32:22;;;;;;;1.20;0.63;;;13.90;99.90;;;;;;5073258;28;20443;-54
2021/05/17 09:34:59;;;;;;;1.00;0.70;;;14.40;99.90;;;;;;5073435;28;20458;-54
2021/05/17 09:37:26;;;;;;;0.70;0.50;;;14.60;99.90;;;;;;5073939;28;20822;-53
2021/05/17 09:39:53;;;;;;;1.47;0.60;;;14.60;99.90;;;;;;5073939;28;20472;-54
2021/05/17 09:42:22;;;;;;;2.53;0.60;;;14.90;99.90;;;;;;5073541;28;20508;-54
2021/05/17 09:44:55;;;;;;;2.37;0.70;;;15.60;99.90;;;;;;5073440;28;20522;-54
2021/05/17 09:47:23;;;;;;;1.83;1.00;;;16.70;99.90;;;;;;5073392;28;20451;-54
2021/05/17 09:49:51;;;;;;;1.17;0.70;;;17.30;99.90;;;;;;5094799;22;20537;-47
2021/05/17 09:52:19;;;;;;;2.70;0.50;;;17.30;99.90;;;;;;5073292;28;20473;-49
2021/05/17 09:55:08;;;;;;;0.60;0.47;;;17.20;99.90;;;;;;5073063;28;20486;-48
2021/05/17 09:57:37;;;;;;;0.50;0.40;;;17.30;99.90;;;;;;5073125;28;20980;-48
2021/05/17 10:00:14;;;;;;;1.20;0.80;;;17.80;99.90;;;;;;5073076;28;21015;-49
2021/05/17 10:02:42;;;;;;;1.00;0.50;;;17.90;99.90;;;;;;5072975;28;20519;-49
2021/05/17 10:05:13;;;;;;;0.70;0.50;;;18.20;99.90;;;;;;5072831;28;20485;-48
2021/05/17 10:07:39;;;;;;;0.90;0.70;;;18.20;99.90;;;;;;5069432;28;20959;-48
2021/05/17 10:10:07;;;;;;;2.10;0.60;;;17.40;99.90;;;;;;5052803;28;20847;-48
2021/05/17 10:12:34;;;;;;;0.80;0.60;;;16.30;99.90;;;;;;5052951;28;20497;-48
2021/05/17 10:15:01;;;;;;;0.60;0.50;;;16.00;99.90;;;;;;5052694;28;20550;-48
2021/05/17 10:17:28;;;;;;;1.73;0.70;;;16.50;99.90;;;;;;5052883;28;21145;-49
2021/05/17 10:19:55;;;;;;;0.73;0.60;;;17.40;99.90;;;;;;5052666;28;20475;-49
2021/05/17 10:22:23;;;;;;;1.60;0.50;;;17.90;99.90;;;;;;5058577;28;20484;-49
2021/05/17 10:24:49;;;;;;;1.10;1.00;;;18.10;99.90;;;;;;5072382;28;20451;-49
2021/05/17 10:27:16;;;;;;;1.77;0.57;;;18.80;99.90;;;;;;5072606;28;20515;-49
2021/05/17 10:29:43;;;;;;;1.23;0.50;;;18.30;99.90;;;;;;5072762;28;20467;-49
2021/05/17 10:32:10;;;;;;;0.60;0.50;;;17.90;99.90;;;;;;5072645;28;20450;-50
2021/05/17 10:34:51;;;;;;;1.67;0.60;;;17.50;99.90;;;;;;5072281;28;21022;-49
2021/05/17 10:37:20;;;;;;;6.73;0.80;;;17.40;99.90;;;;;;5072304;28;20450;-49
2021/05/17 10:39:53;;;;;;;2.20;0.63;;;16.70;99.90;;;;;;5072072;28;20478;-49
2021/05/17 10:42:25;;;;;;;0.67;0.50;;;16.20;99.90;;;;;;5072233;28;20445;-49
2021/05/17 10:48:17;;;;;;;0.70;0.50;;;15.90;99.90;;;;;;5072157;28;20956;-49
2021/05/17 10:50:47;;;;;;;0.70;0.60;;;15.60;99.90;;;;;;5070705;28;20863;-50
2021/05/17 10:53:44;;;;;;;1.27;0.50;;;15.30;99.90;;;;;;5072019;28;20867;-50
2021/05/17 10:56:13;;;;;;;0.80;0.50;;;15.30;99.90;;;;;;5072028;28;20431;-49
2021/05/17 11:01:51;;;;;;;1.03;0.50;;;15.10;99.90;;;;;;5052264;28;20419;-50
2021/05/17 11:04:30;;;;;;;0.70;0.50;;;14.70;99.90;;;;;;5052307;28;20497;-50
2021/05/17 11:07:19;;;;;;;1.23;0.50;;;14.70;99.90;;;;;;5052456;28;20443;-49
2021/05/17 11:09:54;;;;;;;4.30;1.10;;;14.70;99.90;;;;;;5059361;28;20871;-50
2021/05/17 11:12:57;;;;;;;1.00;0.50;;;14.90;99.90;;;;;;5071598;28;20811;-50
2021/05/17 11:15:40;;;;;;;1.20;0.40;;;15.20;99.90;;;;;;5051376;28;20543;-50
2021/05/17 11:18:24;;;;;;;1.37;0.50;;;15.50;99.90;;;;;;5047714;28;20464;-49
2021/05/17 11:20:54;;;;;;;0.60;0.60;;;15.60;99.90;;;;;;5067757;28;20470;-50
2021/05/17 11:23:55;;;;;;;1.30;0.50;;;15.60;99.90;;;;;;5071226;28;20866;-50
2021/05/17 11:26:24;;;;;;;1.33;0.53;;;15.60;99.90;;;;;;5071271;28;20824;-50
2021/05/17 11:29:05;;;;;;;1.03;0.50;;;15.70;99.90;;;;;;5071697;28;20545;-50
2021/05/17 11:31:45;;;;;;;1.80;0.67;;;15.70;99.90;;;;;;5071370;28;20501;-50
2021/05/17 11:34:27;;;;;;;0.77;0.40;;;15.60;99.90;;;;;;5070382;28;20486;-50
2021/05/17 11:37:12;;;;;;;1.17;0.50;;;14.60;99.90;;;;;;5071517;28;20451;-49
2021/05/17 11:39:41;;;;;;;5.47;0.60;;;14.30;99.90;;;;;;5071298;28;20466;-50
2021/05/17 11:42:11;;;;;;;1.70;0.87;;;14.20;99.90;;;;;;5071502;28;20447;-50
2021/05/17 11:44:41;;;;;;;0.73;0.50;;;14.60;99.90;;;;;;5056822;28;20940;-49
2021/05/17 11:47:09;;;;;;;2.37;0.60;;;15.00;99.90;;;;;;5071559;28;20514;-50
2021/05/17 11:49:38;;;;;;;1.27;0.60;;;15.20;99.90;;;;;;5071234;28;20960;-50
2021/05/17 11:52:07;;;;;;;1.20;0.53;;;15.10;99.90;;;;;;5071019;28;20454;-50
2021/05/17 11:54:40;;;;;;;1.00;0.50;;;15.30;99.90;;;;;;5070983;28;20479;-50
2021/05/17 11:57:08;;;;;;;1.80;0.50;;;15.30;99.90;;;;;;5070677;28;20447;-50
2021/05/17 11:59:36;;;;;;;1.10;0.70;;;15.60;99.90;;;;;;5071280;28;20839;-50
2021/05/17 12:02:04;;;;;;;0.83;0.70;;;15.90;99.90;;;;;;5071277;28;20451;-50
2021/05/17 12:04:34;;;;;;;0.60;0.50;;;16.10;99.90;;;;;;5070772;28;20450;-51
2021/05/17 12:07:02;;;;;;;2.80;0.53;;;16.30;99.90;;;;;;5071061;28;20557;-49
2021/05/17 12:09:31;;;;;;;0.60;0.50;;;16.80;99.90;;;;;;5069981;28;20502;-50
2021/05/17 12:12:00;;;;;;;0.60;0.60;;;16.70;99.90;;;;;;5071074;28;20450;-49
2021/05/17 12:14:29;;;;;;;0.50;0.50;;;17.00;99.90;;;;;;5068431;28;20486;-50
2021/05/17 12:17:08;;;;;;;1.07;0.60;;;16.20;99.90;;;;;;5051011;28;20949;-50
2021/05/17 12:19:35;;;;;;;0.60;0.50;;;15.70;99.90;;;;;;5051204;28;20464;-49
2021/05/17 12:22:07;;;;;;;0.90;0.60;;;15.70;99.90;;;;;;5067469;28;20512;-49
2021/05/17 12:24:34;;;;;;;0.70;0.60;;;15.50;99.90;;;;;;5070946;28;20453;-49
2021/05/17 12:27:03;;;;;;;1.73;0.60;;;15.30;99.90;;;;;;5074477;28;20449;-49
2021/05/17 12:29:58;;;;;;;0.80;0.60;;;15.30;99.90;;;;;;5074022;28;20473;-49
2021/05/17 12:32:36;;;;;;;1.70;0.60;;;15.80;99.90;;;;;;5073485;28;20446;-50
2021/05/17 12:35:06;;;;;;;2.40;0.60;;;16.00;99.90;;;;;;5074427;28;20860;-50
2021/05/17 12:37:36;;;;;;;0.80;0.53;;;16.20;99.90;;;;;;5074213;28;20450;-49
2021/05/17 12:40:26;;;;;;;0.70;0.50;;;16.30;99.90;;;;;;5074719;28;20470;-48
2021/05/17 12:43:12;;;;;;;0.90;0.60;;;16.50;99.90;;;;;;5065914;28;20447;-50
2021/05/17 12:45:41;;;;;;;0.80;0.50;;;16.70;99.90;;;;;;5074407;28;20958;-50
2021/05/17 12:48:09;;;;;;;0.97;0.60;;;16.70;99.90;;;;;;5074544;28;20848;-49
2021/05/17 12:50:36;;;;;;;1.00;0.60;;;16.80;99.90;;;;;;5073976;28;20478;-49
2021/05/17 12:53:07;;;;;;;0.90;0.50;;;16.80;99.90;;;;;;5054318;28;20935;-50
2021/05/17 12:55:44;;;;;;;5.57;0.60;;;16.50;99.90;;;;;;5069127;28;20530;-49
2021/05/17 12:58:13;;;;;;;1.30;0.60;;;16.10;99.90;;;;;;5074386;28;20446;-49
2021/05/17 13:00:48;;;;;;;1.27;0.60;;;15.50;99.90;;;;;;5073919;28;20470;-49
2021/05/17 13:03:17;;;;;;;0.70;0.50;;;15.30;99.90;;;;;;5074261;28;20446;-49
2021/05/17 13:05:53;;;;;;;0.70;0.60;;;15.20;99.90;;;;;;5074139;28;20827;-49
2021/05/17 13:08:22;;;;;;;1.37;0.70;;;14.90;99.90;;;;;;5074316;28;20478;-49
2021/05/17 13:10:56;;;;;;;0.93;0.70;;;14.90;99.90;;;;;;5073943;28;20553;-49
2021/05/17 13:13:46;;;;;;;0.60;0.40;;;14.60;99.90;;;;;;5073788;28;20477;-50
2021/05/17 13:16:14;;;;;;;1.73;0.60;;;14.70;99.90;;;;;;5074064;28;20453;-49
2021/05/17 13:19:28;;;;;;;1.60;0.60;;;14.90;99.90;;;;;;5073656;28;20967;-49
2021/05/17 13:22:07;;;;;;;1.73;0.70;;;14.80;99.90;;;;;;5066536;28;21027;-50